sensor_id;sensor_type;location;lat;lon;timestamp;pressure;altitude;pressure_sealevel;temperature
15079;BMP180;6932;51.438;5.470;2023-11-21T00:00:29;100665.00;;;13.80
15079;BMP180;6932;51.438;5.470;2023-11-21T00:02:55;100665.00;;;13.80
15079;BMP180;6932;51.438;5.470;2023-11-21T00:05:21;100666.00;;;13.80
15079;BMP180;6932;51.438;5.470;2023-11-21T00:07:49;100661.00;;;13.80
15079;BMP180;6932;51.438;5.470;2023-11-21T00:10:14;100667.00;;;13.80
15079;BMP180;6932;51.438;5.470;2023-11-21T00:12:42;100670.00;;;13.80
15079;BMP180;6932;51.438;5.470;2023-11-21T00:15:09;100674.00;;;13.80
15079;BMP180;6932;51.438;5.470;2023-11-21T00:17:37;100666.00;;;13.80
15079;BMP180;6932;51.438;5.470;2023-11-21T00:20:05;100666.00;;;13.80
15079;BMP180;6932;51.438;5.470;2023-11-21T00:22:34;100666.00;;;13.80
15079;BMP180;6932;51.438;5.470;2023-11-21T00:25:00;100670.00;;;13.80
15079;BMP180;6932;51.438;5.470;2023-11-21T00:27:25;100672.00;;;13.80
15079;BMP180;6932;51.438;5.470;2023-11-21T00:29:51;100668.00;;;13.80
15079;BMP180;6932;51.438;5.470;2023-11-21T00:32:17;100671.00;;;13.80
15079;BMP180;6932;51.438;5.470;2023-11-21T00:34:43;100668.00;;;13.80
15079;BMP180;6932;51.438;5.470;2023-11-21T00:37:08;100674.00;;;13.80
15079;BMP180;6932;51.438;5.470;2023-11-21T00:39:34;100677.00;;;13.80
15079;BMP180;6932;51.438;5.470;2023-11-21T00:42:00;100679.00;;;13.80
15079;BMP180;6932;51.438;5.470;2023-11-21T00:44:26;100682.00;;;13.80
15079;BMP180;6932;51.438;5.470;2023-11-21T00:46:52;100681.00;;;13.80
15079;BMP180;6932;51.438;5.470;2023-11-21T00:49:17;100679.00;;;13.80
15079;BMP180;6932;51.438;5.470;2023-11-21T00:51:43;100674.00;;;13.70
15079;BMP180;6932;51.438;5.470;2023-11-21T00:54:09;100679.00;;;13.70
15079;BMP180;6932;51.438;5.470;2023-11-21T00:56:34;100688.00;;;13.70
15079;BMP180;6932;51.438;5.470;2023-11-21T00:59:00;100694.00;;;13.70
15079;BMP180;6932;51.438;5.470;2023-11-21T01:01:26;100692.00;;;13.60
15079;BMP180;6932;51.438;5.470;2023-11-21T01:03:52;100686.00;;;13.60
15079;BMP180;6932;51.438;5.470;2023-11-21T01:06:17;100698.00;;;13.60
15079;BMP180;6932;51.438;5.470;2023-11-21T01:08:44;100700.00;;;13.60
15079;BMP180;6932;51.438;5.470;2023-11-21T01:11:11;100701.00;;;13.60
15079;BMP180;6932;51.438;5.470;2023-11-21T01:13:39;100700.00;;;13.60
15079;BMP180;6932;51.438;5.470;2023-11-21T01:16:05;100707.00;;;13.60
15079;BMP180;6932;51.438;5.470;2023-11-21T01:18:32;100711.00;;;13.50
15079;BMP180;6932;51.438;5.470;2023-11-21T01:20:58;100711.00;;;13.50
15079;BMP180;6932;51.438;5.470;2023-11-21T01:23:26;100707.00;;;13.50
15079;BMP180;6932;51.438;5.470;2023-11-21T01:25:52;100709.00;;;13.50
15079;BMP180;6932;51.438;5.470;2023-11-21T01:28:18;100715.00;;;13.50
15079;BMP180;6932;51.438;5.470;2023-11-21T01:30:45;100717.00;;;13.40
15079;BMP180;6932;51.438;5.470;2023-11-21T01:33:11;100719.00;;;13.40
15079;BMP180;6932;51.438;5.470;2023-11-21T01:35:37;100723.00;;;13.40
15079;BMP180;6932;51.438;5.470;2023-11-21T01:38:03;100734.00;;;13.40
15079;BMP180;6932;51.438;5.470;2023-11-21T01:40:29;100722.00;;;13.40
15079;BMP180;6932;51.438;5.470;2023-11-21T01:42:56;100734.00;;;13.40
15079;BMP180;6932;51.438;5.470;2023-11-21T01:45:22;100734.00;;;13.30
15079;BMP180;6932;51.438;5.470;2023-11-21T01:47:51;100734.00;;;13.30
15079;BMP180;6932;51.438;5.470;2023-11-21T01:50:17;100744.00;;;13.30
15079;BMP180;6932;51.438;5.470;2023-11-21T01:52:45;100739.00;;;13.30
15079;BMP180;6932;51.438;5.470;2023-11-21T01:55:12;100741.00;;;13.30
15079;BMP180;6932;51.438;5.470;2023-11-21T01:57:40;100730.00;;;13.20
15079;BMP180;6932;51.438;5.470;2023-11-21T02:00:06;100728.00;;;13.20
15079;BMP180;6932;51.438;5.470;2023-11-21T02:02:48;100733.00;;;13.20
15079;BMP180;6932;51.438;5.470;2023-11-21T02:05:19;100727.00;;;13.20
15079;BMP180;6932;51.438;5.470;2023-11-21T02:07:46;100742.00;;;13.20
15079;BMP180;6932;51.438;5.470;2023-11-21T02:10:15;100742.00;;;13.20
15079;BMP180;6932;51.438;5.470;2023-11-21T02:12:42;100740.00;;;13.20
15079;BMP180;6932;51.438;5.470;2023-11-21T02:15:13;100738.00;;;13.20
15079;BMP180;6932;51.438;5.470;2023-11-21T02:17:49;100749.00;;;13.20
15079;BMP180;6932;51.438;5.470;2023-11-21T02:20:17;100746.00;;;13.20
15079;BMP180;6932;51.438;5.470;2023-11-21T02:25:15;100759.00;;;13.20
15079;BMP180;6932;51.438;5.470;2023-11-21T02:27:41;100754.00;;;13.20
15079;BMP180;6932;51.438;5.470;2023-11-21T02:30:09;100758.00;;;13.20
15079;BMP180;6932;51.438;5.470;2023-11-21T02:32:38;100764.00;;;13.10
15079;BMP180;6932;51.438;5.470;2023-11-21T02:35:05;100758.00;;;13.10
15079;BMP180;6932;51.438;5.470;2023-11-21T02:37:33;100765.00;;;13.10
15079;BMP180;6932;51.438;5.470;2023-11-21T02:40:01;100776.00;;;13.10
15079;BMP180;6932;51.438;5.470;2023-11-21T02:42:30;100773.00;;;13.10
15079;BMP180;6932;51.438;5.470;2023-11-21T02:44:55;100773.00;;;13.10
15079;BMP180;6932;51.438;5.470;2023-11-21T02:47:22;100779.00;;;13.10
15079;BMP180;6932;51.438;5.470;2023-11-21T02:49:49;100772.00;;;13.00
15079;BMP180;6932;51.438;5.470;2023-11-21T02:52:15;100771.00;;;13.00
15079;BMP180;6932;51.438;5.470;2023-11-21T02:54:40;100773.00;;;13.00
15079;BMP180;6932;51.438;5.470;2023-11-21T02:57:06;100767.00;;;13.00
15079;BMP180;6932;51.438;5.470;2023-11-21T02:59:33;100765.00;;;13.00
15079;BMP180;6932;51.438;5.470;2023-11-21T03:01:58;100767.00;;;13.00
15079;BMP180;6932;51.438;5.470;2023-11-21T03:04:24;100769.00;;;13.00
15079;BMP180;6932;51.438;5.470;2023-11-21T03:06:50;100771.00;;;13.00
15079;BMP180;6932;51.438;5.470;2023-11-21T03:09:15;100766.00;;;13.00
15079;BMP180;6932;51.438;5.470;2023-11-21T03:11:41;100765.00;;;13.00
15079;BMP180;6932;51.438;5.470;2023-11-21T03:14:07;100779.00;;;13.00
15079;BMP180;6932;51.438;5.470;2023-11-21T03:16:33;100781.00;;;13.00
15079;BMP180;6932;51.438;5.470;2023-11-21T03:18:59;100790.00;;;13.00
15079;BMP180;6932;51.438;5.470;2023-11-21T03:21:25;100784.00;;;13.00
15079;BMP180;6932;51.438;5.470;2023-11-21T03:23:52;100781.00;;;13.00
15079;BMP180;6932;51.438;5.470;2023-11-21T03:26:18;100779.00;;;13.00
15079;BMP180;6932;51.438;5.470;2023-11-21T03:28:44;100784.00;;;12.90
15079;BMP180;6932;51.438;5.470;2023-11-21T03:31:09;100789.00;;;12.90
15079;BMP180;6932;51.438;5.470;2023-11-21T03:33:35;100788.00;;;12.90
15079;BMP180;6932;51.438;5.470;2023-11-21T03:36:01;100790.00;;;12.90
15079;BMP180;6932;51.438;5.470;2023-11-21T03:38:27;100797.00;;;12.90
15079;BMP180;6932;51.438;5.470;2023-11-21T03:40:53;100787.00;;;12.90
15079;BMP180;6932;51.438;5.470;2023-11-21T03:43:19;100791.00;;;12.90
15079;BMP180;6932;51.438;5.470;2023-11-21T03:45:45;100784.00;;;12.90
15079;BMP180;6932;51.438;5.470;2023-11-21T03:48:13;100793.00;;;12.90
15079;BMP180;6932;51.438;5.470;2023-11-21T03:50:38;100785.00;;;12.90
15079;BMP180;6932;51.438;5.470;2023-11-21T03:53:04;100795.00;;;12.90
15079;BMP180;6932;51.438;5.470;2023-11-21T03:55:30;100797.00;;;12.90
15079;BMP180;6932;51.438;5.470;2023-11-21T03:57:58;100795.00;;;12.90
15079;BMP180;6932;51.438;5.470;2023-11-21T04:00:25;100797.00;;;12.80
15079;BMP180;6932;51.438;5.470;2023-11-21T04:02:53;100802.00;;;12.90
15079;BMP180;6932;51.438;5.470;2023-11-21T04:05:20;100803.00;;;12.80
15079;BMP180;6932;51.438;5.470;2023-11-21T04:07:49;100797.00;;;12.80
15079;BMP180;6932;51.438;5.470;2023-11-21T04:10:15;100809.00;;;12.80
15079;BMP180;6932;51.438;5.470;2023-11-21T04:12:41;100810.00;;;12.80
15079;BMP180;6932;51.438;5.470;2023-11-21T04:15:08;100814.00;;;12.80
15079;BMP180;6932;51.438;5.470;2023-11-21T04:17:36;100825.00;;;12.80
15079;BMP180;6932;51.438;5.470;2023-11-21T04:20:06;100821.00;;;12.80
15079;BMP180;6932;51.438;5.470;2023-11-21T04:22:37;100827.00;;;12.80
15079;BMP180;6932;51.438;5.470;2023-11-21T04:25:15;100839.00;;;12.70
15079;BMP180;6932;51.438;5.470;2023-11-21T04:27:42;100835.00;;;12.80
15079;BMP180;6932;51.438;5.470;2023-11-21T04:30:13;100839.00;;;12.80
15079;BMP180;6932;51.438;5.470;2023-11-21T04:32:39;100849.00;;;12.80
15079;BMP180;6932;51.438;5.470;2023-11-21T04:35:05;100847.00;;;12.80
15079;BMP180;6932;51.438;5.470;2023-11-21T04:37:31;100848.00;;;12.80
15079;BMP180;6932;51.438;5.470;2023-11-21T04:39:57;100853.00;;;12.80
15079;BMP180;6932;51.438;5.470;2023-11-21T04:42:23;100855.00;;;12.70
15079;BMP180;6932;51.438;5.470;2023-11-21T04:44:49;100863.00;;;12.80
15079;BMP180;6932;51.438;5.470;2023-11-21T04:47:15;100862.00;;;12.80
15079;BMP180;6932;51.438;5.470;2023-11-21T04:49:42;100864.00;;;12.80
15079;BMP180;6932;51.438;5.470;2023-11-21T04:52:09;100866.00;;;12.80
15079;BMP180;6932;51.438;5.470;2023-11-21T04:54:36;100863.00;;;12.80
15079;BMP180;6932;51.438;5.470;2023-11-21T04:57:02;100872.00;;;12.80
15079;BMP180;6932;51.438;5.470;2023-11-21T04:59:27;100876.00;;;12.80
15079;BMP180;6932;51.438;5.470;2023-11-21T05:01:53;100879.00;;;12.80
15079;BMP180;6932;51.438;5.470;2023-11-21T05:04:20;100877.00;;;12.80
15079;BMP180;6932;51.438;5.470;2023-11-21T05:06:48;100883.00;;;12.80
15079;BMP180;6932;51.438;5.470;2023-11-21T05:09:14;100887.00;;;12.80
15079;BMP180;6932;51.438;5.470;2023-11-21T05:11:41;100885.00;;;12.80
15079;BMP180;6932;51.438;5.470;2023-11-21T05:14:07;100888.00;;;12.80
15079;BMP180;6932;51.438;5.470;2023-11-21T05:16:33;100885.00;;;12.80
15079;BMP180;6932;51.438;5.470;2023-11-21T05:18:59;100879.00;;;12.80
15079;BMP180;6932;51.438;5.470;2023-11-21T05:21:27;100877.00;;;12.80
15079;BMP180;6932;51.438;5.470;2023-11-21T05:23:53;100880.00;;;12.80
15079;BMP180;6932;51.438;5.470;2023-11-21T05:26:19;100892.00;;;12.70
15079;BMP180;6932;51.438;5.470;2023-11-21T05:28:45;100884.00;;;12.70
15079;BMP180;6932;51.438;5.470;2023-11-21T05:31:10;100890.00;;;12.70
15079;BMP180;6932;51.438;5.470;2023-11-21T05:33:36;100897.00;;;12.70
15079;BMP180;6932;51.438;5.470;2023-11-21T05:36:03;100895.00;;;12.70
15079;BMP180;6932;51.438;5.470;2023-11-21T05:38:29;100902.00;;;12.70
15079;BMP180;6932;51.438;5.470;2023-11-21T05:40:55;100903.00;;;12.70
15079;BMP180;6932;51.438;5.470;2023-11-21T05:43:21;100908.00;;;12.70
15079;BMP180;6932;51.438;5.470;2023-11-21T05:45:47;100921.00;;;12.70
15079;BMP180;6932;51.438;5.470;2023-11-21T05:48:12;100913.00;;;12.70
15079;BMP180;6932;51.438;5.470;2023-11-21T05:50:38;100926.00;;;12.70
15079;BMP180;6932;51.438;5.470;2023-11-21T05:53:04;100926.00;;;12.70
15079;BMP180;6932;51.438;5.470;2023-11-21T05:55:30;100921.00;;;12.80
15079;BMP180;6932;51.438;5.470;2023-11-21T05:57:56;100926.00;;;12.80
15079;BMP180;6932;51.438;5.470;2023-11-21T06:00:22;100924.00;;;12.80
15079;BMP180;6932;51.438;5.470;2023-11-21T06:02:53;100928.00;;;12.80
15079;BMP180;6932;51.438;5.470;2023-11-21T06:05:21;100935.00;;;12.80
15079;BMP180;6932;51.438;5.470;2023-11-21T06:07:50;100938.00;;;12.80
15079;BMP180;6932;51.438;5.470;2023-11-21T06:10:16;100948.00;;;12.90
15079;BMP180;6932;51.438;5.470;2023-11-21T06:12:43;100944.00;;;12.90
15079;BMP180;6932;51.438;5.470;2023-11-21T06:15:10;100950.00;;;12.90
15079;BMP180;6932;51.438;5.470;2023-11-21T06:17:39;100951.00;;;12.90
15079;BMP180;6932;51.438;5.470;2023-11-21T06:20:08;100944.00;;;12.90
15079;BMP180;6932;51.438;5.470;2023-11-21T06:22:41;100954.00;;;12.90
15079;BMP180;6932;51.438;5.470;2023-11-21T06:25:08;100953.00;;;13.00
15079;BMP180;6932;51.438;5.470;2023-11-21T06:27:41;100952.00;;;12.90
15079;BMP180;6932;51.438;5.470;2023-11-21T06:30:08;100958.00;;;13.00
15079;BMP180;6932;51.438;5.470;2023-11-21T06:32:36;100962.00;;;13.00
15079;BMP180;6932;51.438;5.470;2023-11-21T06:35:03;100972.00;;;13.00
15079;BMP180;6932;51.438;5.470;2023-11-21T06:37:30;100965.00;;;13.00
15079;BMP180;6932;51.438;5.470;2023-11-21T06:39:57;100963.00;;;13.00
15079;BMP180;6932;51.438;5.470;2023-11-21T06:42:24;100974.00;;;13.00
15079;BMP180;6932;51.438;5.470;2023-11-21T06:44:50;100972.00;;;13.00
15079;BMP180;6932;51.438;5.470;2023-11-21T06:47:24;100977.00;;;13.10
15079;BMP180;6932;51.438;5.470;2023-11-21T06:49:55;100982.00;;;13.10
15079;BMP180;6932;51.438;5.470;2023-11-21T06:52:21;100970.00;;;13.10
15079;BMP180;6932;51.438;5.470;2023-11-21T06:54:48;100976.00;;;13.20
15079;BMP180;6932;51.438;5.470;2023-11-21T06:57:15;100976.00;;;13.20
15079;BMP180;6932;51.438;5.470;2023-11-21T06:59:41;100988.00;;;13.20
15079;BMP180;6932;51.438;5.470;2023-11-21T07:02:07;100988.00;;;13.20
15079;BMP180;6932;51.438;5.470;2023-11-21T07:04:33;100990.00;;;13.20
15079;BMP180;6932;51.438;5.470;2023-11-21T07:06:59;100990.00;;;13.20
15079;BMP180;6932;51.438;5.470;2023-11-21T07:09:25;100997.00;;;13.20
15079;BMP180;6932;51.438;5.470;2023-11-21T07:11:52;100933.00;;;13.10
15079;BMP180;6932;51.438;5.470;2023-11-21T07:14:18;100938.00;;;12.90
15079;BMP180;6932;51.438;5.470;2023-11-21T07:16:45;100950.00;;;12.70
15079;BMP180;6932;51.438;5.470;2023-11-21T07:19:12;100946.00;;;12.50
15079;BMP180;6932;51.438;5.470;2023-11-21T07:21:39;100951.00;;;12.40
15079;BMP180;6932;51.438;5.470;2023-11-21T07:24:06;100960.00;;;12.30
15079;BMP180;6932;51.438;5.470;2023-11-21T07:26:34;100964.00;;;12.20
15079;BMP180;6932;51.438;5.470;2023-11-21T07:29:02;100976.00;;;12.10
15079;BMP180;6932;51.438;5.470;2023-11-21T07:31:31;100975.00;;;12.00
15079;BMP180;6932;51.438;5.470;2023-11-21T07:33:59;100988.00;;;12.00
15079;BMP180;6932;51.438;5.470;2023-11-21T07:36:25;100987.00;;;12.00
15079;BMP180;6932;51.438;5.470;2023-11-21T07:38:51;100996.00;;;12.00
15079;BMP180;6932;51.438;5.470;2023-11-21T07:41:18;100995.00;;;12.00
15079;BMP180;6932;51.438;5.470;2023-11-21T07:43:45;100992.00;;;11.90
15079;BMP180;6932;51.438;5.470;2023-11-21T07:46:12;100995.00;;;12.00
15079;BMP180;6932;51.438;5.470;2023-11-21T07:48:39;101014.00;;;11.90
15079;BMP180;6932;51.438;5.470;2023-11-21T07:51:05;101074.00;;;12.10
15079;BMP180;6932;51.438;5.470;2023-11-21T07:53:32;101072.00;;;12.30
15079;BMP180;6932;51.438;5.470;2023-11-21T07:56:03;101072.00;;;12.40
15079;BMP180;6932;51.438;5.470;2023-11-21T07:58:29;101075.00;;;12.60
15079;BMP180;6932;51.438;5.470;2023-11-21T08:00:55;101082.00;;;12.80
15079;BMP180;6932;51.438;5.470;2023-11-21T08:03:20;101086.00;;;12.90
15079;BMP180;6932;51.438;5.470;2023-11-21T08:05:47;101085.00;;;13.00
15079;BMP180;6932;51.438;5.470;2023-11-21T08:08:13;101081.00;;;13.10
15079;BMP180;6932;51.438;5.470;2023-11-21T08:10:38;101093.00;;;13.20
15079;BMP180;6932;51.438;5.470;2023-11-21T08:13:05;101099.00;;;13.20
15079;BMP180;6932;51.438;5.470;2023-11-21T08:15:31;101084.00;;;13.30
15079;BMP180;6932;51.438;5.470;2023-11-21T08:17:58;101080.00;;;13.40
15079;BMP180;6932;51.438;5.470;2023-11-21T08:20:26;101087.00;;;13.40
15079;BMP180;6932;51.438;5.470;2023-11-21T08:22:52;101084.00;;;13.50
15079;BMP180;6932;51.438;5.470;2023-11-21T08:25:18;101088.00;;;13.50
15079;BMP180;6932;51.438;5.470;2023-11-21T08:27:46;101090.00;;;13.50
15079;BMP180;6932;51.438;5.470;2023-11-21T08:30:12;101106.00;;;13.60
15079;BMP180;6932;51.438;5.470;2023-11-21T08:32:42;101100.00;;;13.60
15079;BMP180;6932;51.438;5.470;2023-11-21T08:35:08;101107.00;;;13.60
15079;BMP180;6932;51.438;5.470;2023-11-21T08:37:34;101111.00;;;13.70
15079;BMP180;6932;51.438;5.470;2023-11-21T08:40:04;101118.00;;;13.70
15079;BMP180;6932;51.438;5.470;2023-11-21T08:42:35;101125.00;;;13.80
15079;BMP180;6932;51.438;5.470;2023-11-21T08:45:01;101121.00;;;13.80
15079;BMP180;6932;51.438;5.470;2023-11-21T08:47:28;101118.00;;;13.80
15079;BMP180;6932;51.438;5.470;2023-11-21T08:49:53;101130.00;;;13.80
15079;BMP180;6932;51.438;5.470;2023-11-21T08:52:20;101126.00;;;13.90
15079;BMP180;6932;51.438;5.470;2023-11-21T08:54:49;101133.00;;;13.90
15079;BMP180;6932;51.438;5.470;2023-11-21T08:57:25;101126.00;;;13.90
15079;BMP180;6932;51.438;5.470;2023-11-21T08:59:51;101126.00;;;14.00
15079;BMP180;6932;51.438;5.470;2023-11-21T09:02:26;101139.00;;;14.00
15079;BMP180;6932;51.438;5.470;2023-11-21T09:04:52;101131.00;;;14.00
15079;BMP180;6932;51.438;5.470;2023-11-21T09:07:19;101133.00;;;14.00
15079;BMP180;6932;51.438;5.470;2023-11-21T09:09:49;101138.00;;;14.00
15079;BMP180;6932;51.438;5.470;2023-11-21T09:12:15;101142.00;;;14.10
15079;BMP180;6932;51.438;5.470;2023-11-21T09:14:45;101133.00;;;14.10
15079;BMP180;6932;51.438;5.470;2023-11-21T09:17:10;101153.00;;;14.10
15079;BMP180;6932;51.438;5.470;2023-11-21T09:19:38;101139.00;;;14.10
15079;BMP180;6932;51.438;5.470;2023-11-21T09:22:04;101139.00;;;14.10
15079;BMP180;6932;51.438;5.470;2023-11-21T09:24:34;101149.00;;;14.10
15079;BMP180;6932;51.438;5.470;2023-11-21T09:27:00;101147.00;;;14.20
15079;BMP180;6932;51.438;5.470;2023-11-21T09:29:28;101153.00;;;14.20
15079;BMP180;6932;51.438;5.470;2023-11-21T09:31:55;101151.00;;;14.20
15079;BMP180;6932;51.438;5.470;2023-11-21T09:34:22;101170.00;;;14.20
15079;BMP180;6932;51.438;5.470;2023-11-21T09:36:48;101162.00;;;14.30
15079;BMP180;6932;51.438;5.470;2023-11-21T09:39:14;101181.00;;;14.30
15079;BMP180;6932;51.438;5.470;2023-11-21T09:41:52;101181.00;;;14.30
15079;BMP180;6932;51.438;5.470;2023-11-21T09:44:34;101192.00;;;14.30
15079;BMP180;6932;51.438;5.470;2023-11-21T09:47:01;101124.00;;;14.30
15079;BMP180;6932;51.438;5.470;2023-11-21T09:49:28;101134.00;;;14.10
15079;BMP180;6932;51.438;5.470;2023-11-21T09:52:01;101132.00;;;13.90
15079;BMP180;6932;51.438;5.470;2023-11-21T09:54:30;101137.00;;;13.80
15079;BMP180;6932;51.438;5.470;2023-11-21T09:56:59;101143.00;;;13.70
15079;BMP180;6932;51.438;5.470;2023-11-21T09:59:30;101146.00;;;13.60
15079;BMP180;6932;51.438;5.470;2023-11-21T10:01:59;101155.00;;;13.50
15079;BMP180;6932;51.438;5.470;2023-11-21T10:04:26;101158.00;;;13.50
15079;BMP180;6932;51.438;5.470;2023-11-21T10:06:53;101153.00;;;13.40
15079;BMP180;6932;51.438;5.470;2023-11-21T10:09:20;101155.00;;;13.40
15079;BMP180;6932;51.438;5.470;2023-11-21T10:11:49;101160.00;;;13.40
15079;BMP180;6932;51.438;5.470;2023-11-21T10:14:18;101161.00;;;13.40
15079;BMP180;6932;51.438;5.470;2023-11-21T10:16:47;101168.00;;;13.40
15079;BMP180;6932;51.438;5.470;2023-11-21T10:19:14;101165.00;;;13.40
15079;BMP180;6932;51.438;5.470;2023-11-21T10:21:42;101174.00;;;13.40
15079;BMP180;6932;51.438;5.470;2023-11-21T10:24:08;101174.00;;;13.50
15079;BMP180;6932;51.438;5.470;2023-11-21T10:26:34;101235.00;;;13.60
15079;BMP180;6932;51.438;5.470;2023-11-21T10:29:02;101228.00;;;13.80
15079;BMP180;6932;51.438;5.470;2023-11-21T10:31:31;101228.00;;;14.00
15079;BMP180;6932;51.438;5.470;2023-11-21T10:34:16;101244.00;;;14.10
15079;BMP180;6932;51.438;5.470;2023-11-21T10:36:43;101231.00;;;14.30
15079;BMP180;6932;51.438;5.470;2023-11-21T10:39:09;101230.00;;;14.40
15079;BMP180;6932;51.438;5.470;2023-11-21T10:41:36;101223.00;;;14.50
15079;BMP180;6932;51.438;5.470;2023-11-21T10:44:04;101228.00;;;14.60
15079;BMP180;6932;51.438;5.470;2023-11-21T10:46:33;101239.00;;;14.70
15079;BMP180;6932;51.438;5.470;2023-11-21T10:48:59;101239.00;;;14.80
15079;BMP180;6932;51.438;5.470;2023-11-21T10:51:25;101237.00;;;14.90
15079;BMP180;6932;51.438;5.470;2023-11-21T10:53:52;101247.00;;;14.90
15079;BMP180;6932;51.438;5.470;2023-11-21T10:56:19;101238.00;;;15.00
15079;BMP180;6932;51.438;5.470;2023-11-21T10:58:50;101245.00;;;15.10
15079;BMP180;6932;51.438;5.470;2023-11-21T11:01:19;101242.00;;;15.10
15079;BMP180;6932;51.438;5.470;2023-11-21T11:03:47;101246.00;;;15.20
15079;BMP180;6932;51.438;5.470;2023-11-21T11:06:14;101240.00;;;15.20
15079;BMP180;6932;51.438;5.470;2023-11-21T11:08:41;101250.00;;;15.30
15079;BMP180;6932;51.438;5.470;2023-11-21T11:11:07;101256.00;;;15.30
15079;BMP180;6932;51.438;5.470;2023-11-21T11:13:35;101251.00;;;15.40
15079;BMP180;6932;51.438;5.470;2023-11-21T11:16:03;101247.00;;;15.40
15079;BMP180;6932;51.438;5.470;2023-11-21T11:18:33;101253.00;;;15.40
15079;BMP180;6932;51.438;5.470;2023-11-21T11:21:47;101253.00;;;15.40
15079;BMP180;6932;51.438;5.470;2023-11-21T11:27:38;101269.00;;;15.40
15079;BMP180;6932;51.438;5.470;2023-11-21T11:38:52;101290.00;;;15.50
15079;BMP180;6932;51.438;5.470;2023-11-21T11:41:32;101287.00;;;15.50
15079;BMP180;6932;51.438;5.470;2023-11-21T11:44:03;101292.00;;;15.60
15079;BMP180;6932;51.438;5.470;2023-11-21T11:46:43;101279.00;;;15.50
15079;BMP180;6932;51.438;5.470;2023-11-21T11:49:24;101277.00;;;15.60
15079;BMP180;6932;51.438;5.470;2023-11-21T11:52:35;101281.00;;;15.50
15079;BMP180;6932;51.438;5.470;2023-11-21T11:55:03;101285.00;;;15.60
15079;BMP180;6932;51.438;5.470;2023-11-21T11:57:31;101287.00;;;15.60
15079;BMP180;6932;51.438;5.470;2023-11-21T12:00:20;101300.00;;;15.60
15079;BMP180;6932;51.438;5.470;2023-11-21T12:02:55;101309.00;;;15.70
15079;BMP180;6932;51.438;5.470;2023-11-21T12:05:26;101312.00;;;15.70
15079;BMP180;6932;51.438;5.470;2023-11-21T12:08:02;101316.00;;;15.70
15079;BMP180;6932;51.438;5.470;2023-11-21T12:10:30;101321.00;;;15.70
15079;BMP180;6932;51.438;5.470;2023-11-21T12:12:59;101323.00;;;15.70
15079;BMP180;6932;51.438;5.470;2023-11-21T12:15:25;101322.00;;;15.70
15079;BMP180;6932;51.438;5.470;2023-11-21T12:17:52;101324.00;;;15.70
15079;BMP180;6932;51.438;5.470;2023-11-21T12:20:20;101327.00;;;15.70
15079;BMP180;6932;51.438;5.470;2023-11-21T12:22:49;101331.00;;;15.80
15079;BMP180;6932;51.438;5.470;2023-11-21T12:25:23;101335.00;;;15.70
15079;BMP180;6932;51.438;5.470;2023-11-21T12:27:52;101330.00;;;15.70
15079;BMP180;6932;51.438;5.470;2023-11-21T12:30:23;101337.00;;;15.70
15079;BMP180;6932;51.438;5.470;2023-11-21T12:32:54;101334.00;;;15.70
15079;BMP180;6932;51.438;5.470;2023-11-21T12:35:24;101336.00;;;15.70
15079;BMP180;6932;51.438;5.470;2023-11-21T12:37:52;101340.00;;;15.80
15079;BMP180;6932;51.438;5.470;2023-11-21T12:40:19;101357.00;;;15.80
15079;BMP180;6932;51.438;5.470;2023-11-21T12:42:47;101345.00;;;15.80
15079;BMP180;6932;51.438;5.470;2023-11-21T12:47:48;101349.00;;;15.80
15079;BMP180;6932;51.438;5.470;2023-11-21T12:50:25;101347.00;;;15.80
15079;BMP180;6932;51.438;5.470;2023-11-21T12:52:58;101347.00;;;15.80
15079;BMP180;6932;51.438;5.470;2023-11-21T12:55:25;101352.00;;;15.80
15079;BMP180;6932;51.438;5.470;2023-11-21T12:57:55;101351.00;;;15.80
15079;BMP180;6932;51.438;5.470;2023-11-21T13:00:48;101359.00;;;15.70
15079;BMP180;6932;51.438;5.470;2023-11-21T13:03:16;101359.00;;;15.80
15079;BMP180;6932;51.438;5.470;2023-11-21T13:05:47;101361.00;;;15.80
15079;BMP180;6932;51.438;5.470;2023-11-21T13:08:17;101363.00;;;15.80
15079;BMP180;6932;51.438;5.470;2023-11-21T13:10:52;101355.00;;;15.70
15079;BMP180;6932;51.438;5.470;2023-11-21T13:13:19;101367.00;;;15.80
15079;BMP180;6932;51.438;5.470;2023-11-21T13:15:54;101361.00;;;15.70
15079;BMP180;6932;51.438;5.470;2023-11-21T13:18:27;101366.00;;;15.70
15079;BMP180;6932;51.438;5.470;2023-11-21T13:20:55;101374.00;;;15.70
15079;BMP180;6932;51.438;5.470;2023-11-21T13:23:21;101380.00;;;15.70
15079;BMP180;6932;51.438;5.470;2023-11-21T13:25:48;101379.00;;;15.70
15079;BMP180;6932;51.438;5.470;2023-11-21T13:28:15;101379.00;;;15.70
15079;BMP180;6932;51.438;5.470;2023-11-21T13:30:41;101375.00;;;15.70
15079;BMP180;6932;51.438;5.470;2023-11-21T13:33:08;101383.00;;;15.70
15079;BMP180;6932;51.438;5.470;2023-11-21T13:35:37;101383.00;;;15.70
15079;BMP180;6932;51.438;5.470;2023-11-21T13:38:11;101385.00;;;15.70
15079;BMP180;6932;51.438;5.470;2023-11-21T13:40:40;101391.00;;;15.70
15079;BMP180;6932;51.438;5.470;2023-11-21T13:43:14;101398.00;;;15.70
15079;BMP180;6932;51.438;5.470;2023-11-21T13:45:42;101405.00;;;15.60
15079;BMP180;6932;51.438;5.470;2023-11-21T13:48:09;101405.00;;;15.70
15079;BMP180;6932;51.438;5.470;2023-11-21T13:50:46;101413.00;;;15.60
15079;BMP180;6932;51.438;5.470;2023-11-21T13:53:26;101403.00;;;15.60
15079;BMP180;6932;51.438;5.470;2023-11-21T13:55:54;101415.00;;;15.70
15079;BMP180;6932;51.438;5.470;2023-11-21T13:58:21;101423.00;;;15.60
15079;BMP180;6932;51.438;5.470;2023-11-21T14:01:05;101421.00;;;15.60
15079;BMP180;6932;51.438;5.470;2023-11-21T14:03:34;101426.00;;;15.60
15079;BMP180;6932;51.438;5.470;2023-11-21T14:06:10;101425.00;;;15.60
15079;BMP180;6932;51.438;5.470;2023-11-21T14:08:41;101424.00;;;15.60
15079;BMP180;6932;51.438;5.470;2023-11-21T14:11:07;101433.00;;;15.60
15079;BMP180;6932;51.438;5.470;2023-11-21T14:13:33;101435.00;;;15.60
15079;BMP180;6932;51.438;5.470;2023-11-21T14:15:59;101436.00;;;15.60
15079;BMP180;6932;51.438;5.470;2023-11-21T14:18:27;101441.00;;;15.60
15079;BMP180;6932;51.438;5.470;2023-11-21T14:20:56;101450.00;;;15.60
15079;BMP180;6932;51.438;5.470;2023-11-21T14:23:22;101447.00;;;15.70
15079;BMP180;6932;51.438;5.470;2023-11-21T14:25:49;101452.00;;;15.60
15079;BMP180;6932;51.438;5.470;2023-11-21T14:28:18;101454.00;;;15.60
15079;BMP180;6932;51.438;5.470;2023-11-21T14:30:48;101460.00;;;15.60